Time;durP1;ratioP1;P1;durP2;ratioP2;P2;SDS_P1;SDS_P2;PMS_P1;PMS_P2;Temp;Humidity;BMP_temperature;BMP_pressure;BME280_temperature;BME280_humidity;BME280_pressure;Samples;Min_cycle;Max_cycle;Signal;HPM_P1;HPM_P2
2022/12/08 00:01:38;;;;;;;13.35;10.60;;;;;;;;;;4981255;28;20058;-81
2022/12/08 00:04:04;;;;;;;15.77;9.82;;;;;;;;;;4979725;28;20715;-80
2022/12/08 00:09:32;;;;;;;12.00;10.13;;;;;;;;;;4980356;28;20038;-79
2022/12/08 00:12:03;;;;;;;;;;;;;;;;;;4978142;28;20089;-81
2022/12/08 00:14:31;;;;;;;16.60;9.88;;;;;;;;;;4975144;28;19914;-79
2022/12/08 00:16:57;;;;;;;11.18;10.07;;;;;;;;;;4978365;28;20519;-81
2022/12/08 00:19:24;;;;;;;12.90;10.57;;;;;;;;;;4976779;28;20054;-78
2022/12/08 00:21:50;;;;;;;13.02;10.55;;;;;;;;;;4976193;28;20064;-80
2022/12/08 00:24:17;;;;;;;12.00;9.90;;;;;;;;;;4977414;28;20035;-81
2022/12/08 00:26:42;;;;;;;15.32;9.85;;;;;;;;;;4977645;28;20026;-79
2022/12/08 00:29:08;;;;;;;12.88;10.18;;;;;;;;;;4975818;28;20482;-80
2022/12/08 00:31:34;;;;;;;13.05;10.30;;;;;;;;;;4976911;28;20027;-80
2022/12/08 00:33:59;;;;;;;12.63;9.68;;;;;;;;;;4976872;28;20038;-78
2022/12/08 00:36:25;;;;;;;11.48;9.80;;;;;;;;;;4982221;28;20114;-79
2022/12/08 00:38:51;;;;;;;12.55;9.55;;;;;;;;;;4976663;28;20094;-81
2022/12/08 00:42:10;;;;;;;9.95;8.95;;;;;;;;;;4976970;28;20035;-80
2022/12/08 00:44:08;;;;;;;12.07;9.55;;;;;;;;;;4976598;28;20043;-80
2022/12/08 00:46:34;;;;;;;10.77;9.17;;;;;;;;;;4974690;28;20038;-81
2022/12/08 00:49:00;;;;;;;13.07;9.45;;;;;;;;;;4976294;28;20035;-79
2022/12/08 00:51:26;;;;;;;10.52;9.20;;;;;;;;;;4976752;28;20042;-79
2022/12/08 00:53:52;;;;;;;12.63;9.85;;;;;;;;;;4975100;28;20063;-80
2022/12/08 00:56:17;;;;;;;12.93;9.93;;;;;;;;;;4976168;28;20077;-78
2022/12/08 00:58:43;;;;;;;9.77;8.73;;;;;;;;;;4976377;28;20039;-80
2022/12/08 01:01:12;;;;;;;10.98;9.35;;;;;;;;;;4976392;28;20030;-80
2022/12/08 01:03:39;;;;;;;15.23;10.32;;;;;;;;;;4974644;28;20047;-80
2022/12/08 01:06:06;;;;;;;13.15;9.73;;;;;;;;;;4977115;28;20097;-79
2022/12/08 01:08:31;;;;;;;10.32;9.10;;;;;;;;;;4975355;28;20118;-81
2022/12/08 01:11:02;;;;;;;13.15;10.02;;;;;;;;;;4975186;28;20529;-79
2022/12/08 01:13:28;;;;;;;12.10;9.15;;;;;;;;;;4975893;28;20170;-78
2022/12/08 01:15:53;;;;;;;15.85;10.73;;;;;;;;;;4976982;28;20089;-81
2022/12/08 01:18:19;;;;;;;14.77;9.80;;;;;;;;;;4974187;28;20047;-79
2022/12/08 01:20:45;;;;;;;16.20;10.38;;;;;;;;;;4976715;28;20111;-80
2022/12/08 01:23:11;;;;;;;12.45;9.25;;;;;;;;;;4976523;28;20035;-80
2022/12/08 01:25:36;;;;;;;12.90;9.73;;;;;;;;;;4976084;28;20030;-79
2022/12/08 01:28:02;;;;;;;12.88;9.68;;;;;;;;;;4974929;28;20664;-79
2022/12/08 01:30:29;;;;;;;13.38;9.98;;;;;;;;;;4976613;28;20121;-80
2022/12/08 01:32:55;;;;;;;15.90;10.52;;;;;;;;;;4975940;28;20077;-79
2022/12/08 01:35:21;;;;;;;16.35;10.07;;;;;;;;;;4976546;28;20030;-79
2022/12/08 01:37:46;;;;;;;15.27;10.00;;;;;;;;;;4975233;28;20038;-80
2022/12/08 01:40:12;;;;;;;11.98;9.98;;;;;;;;;;4974385;28;20570;-79
2022/12/08 01:42:38;;;;;;;13.70;10.45;;;;;;;;;;4975744;28;20046;-80
2022/12/08 01:45:28;;;;;;;16.33;10.52;;;;;;;;;;4974574;28;20226;-80
2022/12/08 01:48:01;;;;;;;14.23;10.68;;;;;;;;;;4975950;28;20399;-79
2022/12/08 01:50:28;;;;;;;22.35;10.60;;;;;;;;;;4976099;28;20050;-79
2022/12/08 01:53:06;;;;;;;16.13;10.25;;;;;;;;;;4974060;28;20103;-79
2022/12/08 01:55:42;;;;;;;16.35;10.75;;;;;;;;;;4974855;28;20387;-80
2022/12/08 01:58:17;;;;;;;12.82;10.25;;;;;;;;;;4975113;28;20049;-79
2022/12/08 02:00:43;;;;;;;11.63;9.77;;;;;;;;;;4974385;28;20103;-79
2022/12/08 02:03:16;;;;;;;12.60;9.52;;;;;;;;;;4976018;28;20070;-79
2022/12/08 02:05:43;;;;;;;12.15;9.68;;;;;;;;;;4975711;28;20482;-79
2022/12/08 02:08:11;;;;;;;14.18;10.65;;;;;;;;;;4976191;28;20026;-80
2022/12/08 02:10:40;;;;;;;10.43;9.15;;;;;;;;;;4974467;28;20041;-80
2022/12/08 02:13:11;;;;;;;11.52;9.77;;;;;;;;;;4975562;28;20031;-80
2022/12/08 02:15:42;;;;;;;10.13;9.02;;;;;;;;;;4976083;28;20043;-80
2022/12/08 02:18:46;;;;;;;12.18;9.23;;;;;;;;;;4955134;28;20077;-78
2022/12/08 02:21:30;;;;;;;9.60;8.68;;;;;;;;;;4975293;28;20062;-79
2022/12/08 02:23:58;;;;;;;11.45;10.23;;;;;;;;;;4975846;28;20066;-80
2022/12/08 02:27:05;;;;;;;11.43;9.35;;;;;;;;;;4974832;28;20061;-78
2022/12/08 02:29:36;;;;;;;10.40;9.40;;;;;;;;;;4968749;28;20042;-79
2022/12/08 02:32:29;;;;;;;11.35;9.23;;;;;;;;;;4974058;28;20121;-79
2022/12/08 02:35:17;;;;;;;14.95;10.40;;;;;;;;;;4974578;28;20041;-79
2022/12/08 02:37:50;;;;;;;9.20;8.10;;;;;;;;;;4974918;28;20043;-80
2022/12/08 02:40:25;;;;;;;13.05;9.60;;;;;;;;;;4973180;28;20090;-79
2022/12/08 02:42:56;;;;;;;9.68;8.63;;;;;;;;;;4973650;28;20038;-79
2022/12/08 02:45:58;;;;;;;14.90;9.85;;;;;;;;;;4971002;28;20097;-78
2022/12/08 02:48:29;;;;;;;10.40;9.32;;;;;;;;;;4925105;29;20739;-78
2022/12/08 02:50:55;;;;;;;11.13;8.95;;;;;;;;;;4933782;29;20630;-77
2022/12/08 02:53:20;;;;;;;11.88;9.55;;;;;;;;;;4927494;29;20044;-79
2022/12/08 02:56:13;;;;;;;10.35;9.25;;;;;;;;;;4924230;29;20047;-78
2022/12/08 02:58:51;;;;;;;13.50;9.20;;;;;;;;;;4927571;29;20044;-79
2022/12/08 03:01:29;;;;;;;9.73;8.70;;;;;;;;;;4934492;29;20126;-80
2022/12/08 03:04:07;;;;;;;11.55;9.77;;;;;;;;;;4929197;29;20488;-79
2022/12/08 03:06:47;;;;;;;11.15;8.38;;;;;;;;;;4929039;29;20408;-80
2022/12/08 03:09:25;;;;;;;12.45;9.00;;;;;;;;;;4925124;29;20040;-81
2022/12/08 03:12:14;;;;;;;11.45;8.52;;;;;;;;;;4930068;29;20051;-80
2022/12/08 03:14:45;;;;;;;9.82;8.10;;;;;;;;;;4928106;29;20044;-80
2022/12/08 03:17:12;;;;;;;10.18;8.80;;;;;;;;;;4929455;29;20052;-80
2022/12/08 03:19:41;;;;;;;14.35;8.90;;;;;;;;;;4913870;29;20040;-80
2022/12/08 03:22:08;;;;;;;9.30;8.35;;;;;;;;;;4930780;29;20082;-80
2022/12/08 03:24:40;;;;;;;11.10;9.02;;;;;;;;;;4956454;28;20046;-81
2022/12/08 03:27:18;;;;;;;12.20;8.45;;;;;;;;;;4974281;28;20073;-80
2022/12/08 03:29:49;;;;;;;9.00;8.13;;;;;;;;;;4964964;28;20035;-80
2022/12/08 03:32:20;;;;;;;10.07;8.43;;;;;;;;;;4973275;28;20076;-81
2022/12/08 03:34:49;;;;;;;8.75;7.93;;;;;;;;;;4974054;28;20035;-79
2022/12/08 03:37:15;;;;;;;11.07;8.50;;;;;;;;;;4973223;28;20077;-79
2022/12/08 03:39:41;;;;;;;11.07;9.27;;;;;;;;;;4972955;28;20035;-80
2022/12/08 03:42:06;;;;;;;10.68;9.40;;;;;;;;;;4972613;28;20046;-79
2022/12/08 03:44:32;;;;;;;11.30;9.90;;;;;;;;;;4971880;28;20035;-79
2022/12/08 03:46:58;;;;;;;10.52;8.98;;;;;;;;;;4972708;28;20061;-79
2022/12/08 03:49:23;;;;;;;12.95;10.38;;;;;;;;;;4982736;28;20045;-79
2022/12/08 03:51:50;;;;;;;8.00;7.38;;;;;;;;;;4971727;28;20042;-78
2022/12/08 03:54:15;;;;;;;8.55;7.78;;;;;;;;;;4970122;28;20045;-79
2022/12/08 03:56:41;;;;;;;16.92;9.38;;;;;;;;;;4969566;28;20110;-79
2022/12/08 03:59:07;;;;;;;10.63;8.48;;;;;;;;;;4968876;28;20522;-79
2022/12/08 04:01:33;;;;;;;10.65;9.52;;;;;;;;;;4969056;28;20034;-79
2022/12/08 04:03:58;;;;;;;23.17;9.88;;;;;;;;;;4969011;28;20039;-80
2022/12/08 04:06:24;;;;;;;13.77;9.25;;;;;;;;;;4969875;28;20043;-79
2022/12/08 04:08:50;;;;;;;11.60;9.88;;;;;;;;;;4970834;28;20054;-79
2022/12/08 04:11:16;;;;;;;10.07;9.05;;;;;;;;;;4970906;28;20041;-79
2022/12/08 04:13:43;;;;;;;9.82;8.82;;;;;;;;;;4969321;28;20126;-79
2022/12/08 04:16:15;;;;;;;24.92;10.27;;;;;;;;;;4970540;28;20026;-79
2022/12/08 04:18:41;;;;;;;11.60;9.23;;;;;;;;;;4972171;28;20053;-79
2022/12/08 04:21:06;;;;;;;10.35;9.02;;;;;;;;;;4972822;28;20030;-80
2022/12/08 04:23:32;;;;;;;11.57;8.75;;;;;;;;;;4971504;28;20113;-79
2022/12/08 04:25:57;;;;;;;10.13;8.95;;;;;;;;;;4973959;28;20037;-79
2022/12/08 04:28:23;;;;;;;10.75;9.07;;;;;;;;;;4974145;28;20114;-79
2022/12/08 04:30:49;;;;;;;11.00;8.98;;;;;;;;;;4974175;28;20095;-79
2022/12/08 04:33:14;;;;;;;11.27;9.45;;;;;;;;;;4974219;28;20031;-79
2022/12/08 04:35:40;;;;;;;10.60;8.70;;;;;;;;;;4973767;28;20394;-79
2022/12/08 04:38:06;;;;;;;10.68;9.10;;;;;;;;;;4971260;28;20431;-79
2022/12/08 04:40:32;;;;;;;9.80;8.80;;;;;;;;;;4973566;28;20054;-79
2022/12/08 04:42:58;;;;;;;11.27;9.00;;;;;;;;;;4972053;28;20034;-78
2022/12/08 04:45:23;;;;;;;16.48;8.30;;;;;;;;;;4973608;28;20042;-79
2022/12/08 04:47:49;;;;;;;12.65;9.55;;;;;;;;;;4969415;28;20497;-78
2022/12/08 04:50:14;;;;;;;12.82;9.65;;;;;;;;;;4972955;28;20031;-79
2022/12/08 04:52:40;;;;;;;8.35;7.55;;;;;;;;;;4973106;28;20038;-78
2022/12/08 04:55:06;;;;;;;14.00;9.43;;;;;;;;;;4972101;28;20074;-78
2022/12/08 04:57:32;;;;;;;10.18;8.60;;;;;;;;;;4969750;28;20053;-79
2022/12/08 04:59:57;;;;;;;12.77;9.60;;;;;;;;;;4971074;28;20113;-78
2022/12/08 05:02:23;;;;;;;12.07;8.80;;;;;;;;;;4971808;28;20047;-79
2022/12/08 05:04:48;;;;;;;10.25;9.15;;;;;;;;;;4971936;28;20042;-79
2022/12/08 05:07:14;;;;;;;12.43;9.18;;;;;;;;;;4972674;28;20035;-78
2022/12/08 05:09:40;;;;;;;17.83;8.90;;;;;;;;;;4972518;28;20495;-78
2022/12/08 05:12:05;;;;;;;11.98;9.15;;;;;;;;;;4970728;28;20446;-78
2022/12/08 05:14:31;;;;;;;10.38;8.63;;;;;;;;;;4973574;28;20107;-79
2022/12/08 05:16:56;;;;;;;12.82;9.13;;;;;;;;;;4970708;28;20074;-78
2022/12/08 05:19:22;;;;;;;12.00;8.80;;;;;;;;;;4970776;28;20085;-78
2022/12/08 05:21:48;;;;;;;9.77;8.32;;;;;;;;;;4971749;28;20031;-79
2022/12/08 05:24:13;;;;;;;11.55;9.45;;;;;;;;;;4969639;28;20522;-78
2022/12/08 05:26:39;;;;;;;10.48;9.43;;;;;;;;;;4971781;28;20039;-79
2022/12/08 05:29:05;;;;;;;9.43;8.32;;;;;;;;;;4969054;28;20502;-79
2022/12/08 05:31:30;;;;;;;11.73;10.15;;;;;;;;;;4968036;28;20408;-79
2022/12/08 05:33:56;;;;;;;11.93;9.05;;;;;;;;;;4963454;28;20146;-79
2022/12/08 05:36:21;;;;;;;10.43;9.30;;;;;;;;;;4971211;28;20030;-79
2022/12/08 05:38:47;;;;;;;11.10;9.73;;;;;;;;;;4968941;28;20034;-79
2022/12/08 05:41:16;;;;;;;10.35;8.60;;;;;;;;;;4971420;28;20097;-79
2022/12/08 05:43:42;;;;;;;9.68;8.57;;;;;;;;;;4972481;28;20039;-79
2022/12/08 05:46:08;;;;;;;10.50;9.10;;;;;;;;;;4973361;28;20038;-79
2022/12/08 05:48:34;;;;;;;11.32;8.68;;;;;;;;;;4972325;28;20161;-79
2022/12/08 05:51:00;;;;;;;10.13;9.02;;;;;;;;;;4975863;28;20034;-79
2022/12/08 05:53:26;;;;;;;10.07;8.38;;;;;;;;;;4972747;28;20037;-79
2022/12/08 05:55:52;;;;;;;12.35;9.27;;;;;;;;;;4978052;28;20117;-79
2022/12/08 05:58:19;;;;;;;13.10;9.60;;;;;;;;;;4972855;28;20094;-80
2022/12/08 06:00:46;;;;;;;11.80;9.50;;;;;;;;;;4972414;28;20145;-80
2022/12/08 06:03:14;;;;;;;8.55;7.68;;;;;;;;;;4975736;28;20035;-77
2022/12/08 06:05:40;;;;;;;15.60;10.02;;;;;;;;;;4979847;28;20045;-79
2022/12/08 06:08:07;;;;;;;11.88;9.45;;;;;;;;;;4971746;28;20034;-79
2022/12/08 06:10:32;;;;;;;9.25;6.53;;;;;;;;;;4971211;28;20038;-79
2022/12/08 06:12:58;;;;;;;12.25;9.20;;;;;;;;;;4969078;28;20035;-78
2022/12/08 06:15:24;;;;;;;14.55;11.57;;;;;;;;;;4971037;28;20043;-79
2022/12/08 06:17:49;;;;;;;12.10;9.15;;;;;;;;;;4969472;28;20038;-79
2022/12/08 06:20:15;;;;;;;9.25;8.45;;;;;;;;;;4970386;28;20077;-79
2022/12/08 06:22:40;;;;;;;11.55;9.13;;;;;;;;;;4970695;28;20031;-78
2022/12/08 06:25:06;;;;;;;13.18;11.05;;;;;;;;;;4968941;28;20039;-78
2022/12/08 06:27:32;;;;;;;11.40;9.02;;;;;;;;;;4971030;28;20491;-80
2022/12/08 06:29:58;;;;;;;13.48;11.15;;;;;;;;;;4968724;28;20170;-76
2022/12/08 06:32:24;;;;;;;19.33;10.93;;;;;;;;;;4971605;28;20129;-78
2022/12/08 06:34:49;;;;;;;10.70;9.60;;;;;;;;;;4970301;28;20042;-78
2022/12/08 06:37:15;;;;;;;18.58;12.27;;;;;;;;;;4969802;28;20395;-78
2022/12/08 06:39:40;;;;;;;24.20;17.73;;;;;;;;;;4969384;28;20039;-77
2022/12/08 06:44:51;;;;;;;10.30;9.27;;;;;;;;;;4968925;28;20035;-77
2022/12/08 06:47:16;;;;;;;10.27;9.02;;;;;;;;;;4970432;28;20379;-78
2022/12/08 06:49:42;;;;;;;10.02;9.05;;;;;;;;;;4968380;28;20042;-76
2022/12/08 06:52:07;;;;;;;15.00;11.73;;;;;;;;;;4969885;28;20491;-76
2022/12/08 06:54:33;;;;;;;28.85;13.43;;;;;;;;;;4969107;28;20049;-77
2022/12/08 06:56:58;;;;;;;16.65;12.88;;;;;;;;;;4970318;28;20034;-76
2022/12/08 06:59:27;;;;;;;18.85;12.63;;;;;;;;;;4969828;28;20459;-78
2022/12/08 07:01:52;;;;;;;13.50;11.20;;;;;;;;;;4968857;28;20085;-75
2022/12/08 07:04:18;;;;;;;21.67;10.63;;;;;;;;;;4969259;28;20458;-76
2022/12/08 07:06:43;;;;;;;12.52;10.85;;;;;;;;;;4969064;28;20042;-79
2022/12/08 07:09:09;;;;;;;22.98;15.50;;;;;;;;;;4967095;28;20035;-78
2022/12/08 07:11:37;;;;;;;15.32;11.43;;;;;;;;;;4965292;28;20026;-76
2022/12/08 07:14:03;;;;;;;10.93;9.82;;;;;;;;;;4968954;28;20073;-77
2022/12/08 07:16:28;;;;;;;9.40;8.60;;;;;;;;;;4970212;28;20058;-76
2022/12/08 07:18:54;;;;;;;17.20;12.57;;;;;;;;;;4969619;28;20125;-77
2022/12/08 07:21:19;;;;;;;11.18;10.00;;;;;;;;;;4967234;28;20069;-75
2022/12/08 07:23:46;;;;;;;13.13;11.25;;;;;;;;;;4968908;28;20035;-78
2022/12/08 07:26:12;;;;;;;14.88;11.68;;;;;;;;;;4968700;28;20035;-78
2022/12/08 07:28:40;;;;;;;17.00;12.32;;;;;;;;;;4968998;28;20409;-77
2022/12/08 07:31:07;;;;;;;9.32;8.50;;;;;;;;;;4967351;28;20031;-77
2022/12/08 07:33:34;;;;;;;16.17;12.50;;;;;;;;;;4968686;28;20114;-76
2022/12/08 07:36:04;;;;;;;10.75;9.75;;;;;;;;;;4968658;28;20043;-77
2022/12/08 07:38:30;;;;;;;14.93;11.60;;;;;;;;;;4966747;28;20093;-78
2022/12/08 07:40:56;;;;;;;9.93;9.07;;;;;;;;;;4968028;28;20067;-77
2022/12/08 07:43:22;;;;;;;11.38;9.40;;;;;;;;;;4969507;28;20077;-78
2022/12/08 07:45:49;;;;;;;18.95;13.30;;;;;;;;;;4970226;28;20059;-76
2022/12/08 07:48:15;;;;;;;8.52;7.85;;;;;;;;;;4967744;28;20042;-77
2022/12/08 07:50:41;;;;;;;19.55;14.07;;;;;;;;;;4969129;28;20037;-78
2022/12/08 07:53:07;;;;;;;16.92;14.88;;;;;;;;;;4973310;28;20376;-76
2022/12/08 07:55:33;;;;;;;14.77;12.52;;;;;;;;;;4973277;28;20136;-76
2022/12/08 07:57:58;;;;;;;15.50;12.80;;;;;;;;;;4970582;28;20030;-77
2022/12/08 08:00:24;;;;;;;18.73;13.15;;;;;;;;;;4973189;28;20034;-77
2022/12/08 08:02:50;;;;;;;11.27;9.77;;;;;;;;;;4973323;28;20074;-76
2022/12/08 08:05:15;;;;;;;11.25;10.27;;;;;;;;;;4973807;28;20114;-76
2022/12/08 08:07:42;;;;;;;11.60;10.40;;;;;;;;;;4971906;28;20093;-77
2022/12/08 08:10:09;;;;;;;19.55;11.88;;;;;;;;;;4973613;28;20562;-77
2022/12/08 08:12:36;;;;;;;18.17;11.80;;;;;;;;;;4973391;28;20042;-74
2022/12/08 08:15:04;;;;;;;12.80;10.88;;;;;;;;;;4973870;28;20035;-78
2022/12/08 08:17:30;;;;;;;12.45;11.15;;;;;;;;;;4972324;28;20038;-78
2022/12/08 08:19:56;;;;;;;18.50;11.02;;;;;;;;;;4973171;28;20086;-77
2022/12/08 08:22:23;;;;;;;13.38;11.13;;;;;;;;;;4973287;28;20049;-75
2022/12/08 08:24:49;;;;;;;15.35;11.48;;;;;;;;;;4969639;28;20031;-77
2022/12/08 08:27:15;;;;;;;15.40;12.15;;;;;;;;;;4973238;28;20049;-76
2022/12/08 08:29:41;;;;;;;19.95;10.75;;;;;;;;;;4973386;28;20130;-76
2022/12/08 08:32:06;;;;;;;13.02;11.02;;;;;;;;;;4972841;28;20080;-77
2022/12/08 08:34:32;;;;;;;12.98;10.90;;;;;;;;;;4970728;28;20043;-77
2022/12/08 08:36:58;;;;;;;15.02;12.40;;;;;;;;;;4972371;28;20406;-76
2022/12/08 08:39:23;;;;;;;15.75;12.13;;;;;;;;;;4971901;28;20038;-76
2022/12/08 08:41:50;;;;;;;13.38;10.88;;;;;;;;;;4972220;28;20043;-76
2022/12/08 08:44:15;;;;;;;15.48;11.63;;;;;;;;;;4969865;28;20038;-76
2022/12/08 08:46:41;;;;;;;14.27;11.48;;;;;;;;;;4972284;28;20106;-76
2022/12/08 08:49:07;;;;;;;14.43;11.90;;;;;;;;;;4971993;28;20051;-77
2022/12/08 08:51:33;;;;;;;14.20;11.23;;;;;;;;;;4970790;28;20038;-77
2022/12/08 08:53:58;;;;;;;14.30;10.88;;;;;;;;;;4971628;28;20043;-78
2022/12/08 08:56:25;;;;;;;13.38;10.80;;;;;;;;;;4965784;28;20045;-77
2022/12/08 08:58:52;;;;;;;13.52;10.85;;;;;;;;;;4970720;28;20031;-75
2022/12/08 09:01:20;;;;;;;13.57;10.43;;;;;;;;;;4974084;28;20061;-75
2022/12/08 09:03:47;;;;;;;16.83;11.15;;;;;;;;;;4970040;28;20038;-77
2022/12/08 09:06:14;;;;;;;12.18;10.38;;;;;;;;;;4972312;28;20038;-77
2022/12/08 09:08:41;;;;;;;12.45;9.00;;;;;;;;;;4971411;28;20027;-77
2022/12/08 09:11:07;;;;;;;11.65;9.25;;;;;;;;;;4971344;28;21464;-77
2022/12/08 09:13:33;;;;;;;18.95;12.80;;;;;;;;;;4970660;28;20038;-76
2022/12/08 09:16:03;;;;;;;35.15;18.08;;;;;;;;;;4970591;28;20039;-77
2022/12/08 09:18:30;;;;;;;75.97;29.95;;;;;;;;;;4969534;28;20042;-76
2022/12/08 09:20:55;;;;;;;112.60;38.47;;;;;;;;;;4971023;28;20078;-78
2022/12/08 09:23:21;;;;;;;319.02;102.05;;;;;;;;;;4970237;28;20067;-77
2022/12/08 09:25:47;;;;;;;14.70;12.52;;;;;;;;;;4971310;28;20414;-78
2022/12/08 09:28:13;;;;;;;15.07;12.88;;;;;;;;;;4969723;28;20039;-77
2022/12/08 09:30:40;;;;;;;12.77;11.30;;;;;;;;;;4969769;28;20580;-77
2022/12/08 09:33:05;;;;;;;11.13;10.02;;;;;;;;;;4968825;28;20035;-78
2022/12/08 09:35:32;;;;;;;11.68;10.02;;;;;;;;;;4970671;28;20161;-77
2022/12/08 09:37:58;;;;;;;12.13;10.63;;;;;;;;;;4971509;28;20544;-77
2022/12/08 09:40:25;;;;;;;10.77;9.07;;;;;;;;;;4970084;28;20035;-77
2022/12/08 09:43:09;;;;;;;11.35;10.00;;;;;;;;;;4969579;28;20093;-77
2022/12/08 09:45:35;;;;;;;11.18;9.90;;;;;;;;;;4969947;28;20512;-77
2022/12/08 09:48:10;;;;;;;9.68;8.52;;;;;;;;;;4971305;28;20030;-77
2022/12/08 09:50:51;;;;;;;10.57;9.50;;;;;;;;;;4971578;28;20029;-76
2022/12/08 09:53:19;;;;;;;13.43;9.48;;;;;;;;;;4969666;28;20045;-76
2022/12/08 09:55:50;;;;;;;10.60;9.50;;;;;;;;;;4969526;28;20403;-77
2022/12/08 09:58:43;;;;;;;9.90;8.93;;;;;;;;;;4967213;28;20097;-76
2022/12/08 10:01:10;;;;;;;15.13;10.50;;;;;;;;;;4969809;28;20058;-76
2022/12/08 10:03:36;;;;;;;12.45;9.70;;;;;;;;;;4970505;28;20026;-76
2022/12/08 10:06:04;;;;;;;10.05;8.80;;;;;;;;;;4969984;28;20030;-76
2022/12/08 10:08:59;;;;;;;13.75;9.23;;;;;;;;;;4971820;28;20034;-76
2022/12/08 10:11:35;;;;;;;11.63;10.20;;;;;;;;;;4953101;28;20084;-76
2022/12/08 10:14:09;;;;;;;10.50;9.40;;;;;;;;;;4970351;28;20073;-76
2022/12/08 10:16:44;;;;;;;9.80;8.90;;;;;;;;;;4970258;28;20044;-76
2022/12/08 10:19:16;;;;;;;10.02;8.75;;;;;;;;;;4971008;28;20034;-75
2022/12/08 10:21:42;;;;;;;16.42;9.10;;;;;;;;;;4971484;28;20070;-76
2022/12/08 10:24:37;;;;;;;12.05;9.20;;;;;;;;;;4970631;28;20063;-76
2022/12/08 10:27:04;;;;;;;9.35;8.25;;;;;;;;;;4967047;28;20097;-77
2022/12/08 10:29:30;;;;;;;9.57;8.63;;;;;;;;;;4971361;28;20030;-76
2022/12/08 10:31:58;;;;;;;11.13;9.50;;;;;;;;;;4970115;28;20095;-77
2022/12/08 10:34:25;;;;;;;12.10;9.93;;;;;;;;;;4971311;28;20038;-76
2022/12/08 10:36:53;;;;;;;10.35;8.77;;;;;;;;;;4971479;28;20058;-77
2022/12/08 10:39:44;;;;;;;13.10;10.77;;;;;;;;;;4970767;28;20085;-76
2022/12/08 10:42:13;;;;;;;9.52;8.50;;;;;;;;;;4968886;28;20066;-77
2022/12/08 10:44:50;;;;;;;9.27;8.37;;;;;;;;;;4970349;28;20118;-77
2022/12/08 10:47:20;;;;;;;8.27;7.57;;;;;;;;;;4985523;28;20061;-76
2022/12/08 10:49:46;;;;;;;8.48;7.68;;;;;;;;;;4971834;28;20117;-77
2022/12/08 10:52:24;;;;;;;9.40;8.43;;;;;;;;;;4973556;28;20105;-77
2022/12/08 10:54:53;;;;;;;9.50;8.50;;;;;;;;;;4975560;28;20112;-76
2022/12/08 10:57:21;;;;;;;12.02;8.52;;;;;;;;;;4971987;28;20046;-77
2022/12/08 10:59:47;;;;;;;9.77;8.77;;;;;;;;;;4972515;28;20041;-77
2022/12/08 11:02:18;;;;;;;9.32;7.95;;;;;;;;;;4969451;28;20129;-77
2022/12/08 11:04:45;;;;;;;8.45;7.72;;;;;;;;;;4966529;28;20034;-76
2022/12/08 11:07:18;;;;;;;10.02;9.02;;;;;;;;;;4969660;28;20038;-77
2022/12/08 11:09:51;;;;;;;9.48;8.55;;;;;;;;;;4967293;28;20117;-77
2022/12/08 11:12:21;;;;;;;10.48;8.02;;;;;;;;;;4965524;28;20054;-77
2022/12/08 11:14:57;;;;;;;10.25;8.52;;;;;;;;;;4967848;28;20026;-77
2022/12/08 11:17:34;;;;;;;10.18;7.50;;;;;;;;;;4969485;28;20057;-77
2022/12/08 11:20:22;;;;;;;9.60;8.65;;;;;;;;;;4949866;28;20031;-77
2022/12/08 11:22:55;;;;;;;9.70;8.55;;;;;;;;;;4969570;28;20081;-77
2022/12/08 11:25:26;;;;;;;10.18;8.50;;;;;;;;;;4969518;28;20549;-77
2022/12/08 11:27:56;;;;;;;9.55;8.25;;;;;;;;;;4973018;28;20062;-77
2022/12/08 11:30:25;;;;;;;9.00;8.18;;;;;;;;;;4975400;28;20762;-77
2022/12/08 11:32:57;;;;;;;10.27;9.13;;;;;;;;;;4975641;28;20043;-77
2022/12/08 11:35:28;;;;;;;10.55;9.38;;;;;;;;;;4975646;28;20112;-77
2022/12/08 11:38:04;;;;;;;9.43;8.57;;;;;;;;;;4974126;28;20053;-77
2022/12/08 11:40:38;;;;;;;8.82;8.13;;;;;;;;;;4974092;28;20046;-78
2022/12/08 11:43:12;;;;;;;8.32;7.72;;;;;;;;;;4975310;28;20061;-77
2022/12/08 11:45:39;;;;;;;9.25;8.40;;;;;;;;;;4974990;28;20031;-78
2022/12/08 11:48:05;;;;;;;9.23;8.35;;;;;;;;;;4975514;28;20050;-76
2022/12/08 11:50:44;;;;;;;8.85;8.02;;;;;;;;;;4976588;28;20035;-78
2022/12/08 11:53:34;;;;;;;8.70;8.00;;;;;;;;;;4975787;28;20040;-78
2022/12/08 11:56:07;;;;;;;10.32;8.50;;;;;;;;;;4973955;28;20101;-78
2022/12/08 11:58:38;;;;;;;9.52;8.32;;;;;;;;;;4975805;28;20544;-78
2022/12/08 12:01:04;;;;;;;8.20;7.50;;;;;;;;;;4974989;28;20615;-77
2022/12/08 12:03:35;;;;;;;9.57;8.68;;;;;;;;;;4973647;28;20137;-78
2022/12/08 12:06:12;;;;;;;9.65;8.85;;;;;;;;;;4973944;28;20084;-79
2022/12/08 12:09:16;;;;;;;9.10;8.30;;;;;;;;;;4968865;28;20072;-78
2022/12/08 12:15:16;;;;;;;9.77;8.98;;;;;;;;;;4973944;28;20030;-78
2022/12/08 12:17:54;;;;;;;9.13;8.35;;;;;;;;;;4972146;28;20066;-78
2022/12/08 12:20:37;;;;;;;8.55;7.85;;;;;;;;;;4973107;28;20038;-78
2022/12/08 12:23:18;;;;;;;10.73;8.82;;;;;;;;;;4972733;28;20030;-79
2022/12/08 12:25:58;;;;;;;9.23;8.25;;;;;;;;;;4971912;28;20052;-78
2022/12/08 12:28:27;;;;;;;8.98;8.27;;;;;;;;;;4972704;28;20075;-78
2022/12/08 12:30:56;;;;;;;;;;;;;;;;;;4976202;28;20066;-75
2022/12/08 12:33:22;;;;;;;8.85;8.07;;;;;;;;;;4974951;28;19914;-78
2022/12/08 12:35:48;;;;;;;8.45;7.68;;;;;;;;;;4971900;28;20038;-77
2022/12/08 12:41:22;;;;;;;8.90;8.02;;;;;;;;;;4970257;28;20125;-78
2022/12/08 12:44:06;;;;;;;9.73;8.20;;;;;;;;;;4970248;28;20041;-78
2022/12/08 12:46:47;;;;;;;9.70;8.15;;;;;;;;;;4971289;28;20037;-78
2022/12/08 12:49:42;;;;;;;8.98;8.20;;;;;;;;;;4971124;28;20691;-77
2022/12/08 12:52:14;;;;;;;8.75;7.95;;;;;;;;;;4967939;28;20039;-77
2022/12/08 12:54:49;;;;;;;9.25;8.38;;;;;;;;;;4971014;28;20043;-78
2022/12/08 12:57:17;;;;;;;9.93;7.32;;;;;;;;;;4970151;28;20918;-78
2022/12/08 12:59:52;;;;;;;8.65;7.88;;;;;;;;;;4970463;28;20031;-78
2022/12/08 13:02:26;;;;;;;8.80;8.05;;;;;;;;;;4968087;28;20050;-77
2022/12/08 13:05:02;;;;;;;8.23;7.50;;;;;;;;;;4971134;28;20037;-78
2022/12/08 13:07:31;;;;;;;8.57;7.88;;;;;;;;;;4968238;28;20750;-77
2022/12/08 13:10:28;;;;;;;9.23;7.72;;;;;;;;;;4969746;28;20534;-77
2022/12/08 13:13:09;;;;;;;7.78;7.07;;;;;;;;;;4963298;28;20078;-77
2022/12/08 13:15:46;;;;;;;8.77;7.90;;;;;;;;;;4971611;28;20046;-78
2022/12/08 13:18:41;;;;;;;8.02;7.22;;;;;;;;;;4969854;28;20034;-77
2022/12/08 13:21:07;;;;;;;8.07;7.28;;;;;;;;;;4947700;29;20066;-77
2022/12/08 13:23:35;;;;;;;8.27;7.40;;;;;;;;;;4948954;29;20043;-77
2022/12/08 13:26:19;;;;;;;8.93;7.97;;;;;;;;;;4954149;29;20058;-78
2022/12/08 13:29:00;;;;;;;7.97;7.00;;;;;;;;;;4957807;28;20326;-78
2022/12/08 13:31:40;;;;;;;8.73;7.80;;;;;;;;;;4951411;29;20039;-78
2022/12/08 13:34:40;;;;;;;8.05;7.35;;;;;;;;;;4947812;29;20779;-77
2022/12/08 13:37:14;;;;;;;8.95;7.85;;;;;;;;;;4940746;28;20055;-78
2022/12/08 13:39:49;;;;;;;7.20;6.70;;;;;;;;;;4937431;29;20038;-76
2022/12/08 13:42:40;;;;;;;8.32;7.47;;;;;;;;;;4952722;29;20047;-76
2022/12/08 13:45:11;;;;;;;8.02;7.20;;;;;;;;;;4946639;28;20522;-78
2022/12/08 13:47:40;;;;;;;8.10;7.40;;;;;;;;;;4945303;29;20051;-77
2022/12/08 13:50:09;;;;;;;8.07;7.32;;;;;;;;;;4945751;28;20071;-76
2022/12/08 13:52:43;;;;;;;7.30;6.60;;;;;;;;;;4935140;29;20059;-77
2022/12/08 13:55:20;;;;;;;7.47;6.72;;;;;;;;;;4949839;29;20403;-77
2022/12/08 13:57:49;;;;;;;6.95;6.30;;;;;;;;;;4958012;28;20054;-78
2022/12/08 14:00:20;;;;;;;7.07;6.47;;;;;;;;;;4972232;28;20042;-78
2022/12/08 14:02:49;;;;;;;6.70;6.20;;;;;;;;;;4972769;28;20035;-78
2022/12/08 14:05:17;;;;;;;9.07;7.43;;;;;;;;;;4972094;28;20063;-78
2022/12/08 14:07:45;;;;;;;7.00;6.10;;;;;;;;;;4989836;28;20030;-77
2022/12/08 14:10:28;;;;;;;7.07;6.53;;;;;;;;;;4970975;28;20380;-77
2022/12/08 14:13:05;;;;;;;7.35;6.75;;;;;;;;;;4973379;28;20043;-77
2022/12/08 14:15:31;;;;;;;7.80;7.10;;;;;;;;;;4971830;28;20049;-78
2022/12/08 14:17:57;;;;;;;8.00;7.28;;;;;;;;;;4971773;28;20031;-77
2022/12/08 14:20:26;;;;;;;7.85;6.50;;;;;;;;;;4970412;28;20039;-77
2022/12/08 14:22:53;;;;;;;7.63;6.88;;;;;;;;;;4973557;28;20038;-77
2022/12/08 14:25:21;;;;;;;10.52;6.82;;;;;;;;;;4988456;28;20131;-78
2022/12/08 14:27:47;;;;;;;7.20;6.60;;;;;;;;;;4973428;28;20030;-77
2022/12/08 14:30:13;;;;;;;6.95;6.35;;;;;;;;;;4969698;28;20046;-77
2022/12/08 14:32:43;;;;;;;8.27;7.18;;;;;;;;;;4973802;28;20034;-76
2022/12/08 14:35:09;;;;;;;7.75;7.05;;;;;;;;;;4973540;28;20078;-76
2022/12/08 14:37:37;;;;;;;12.60;7.55;;;;;;;;;;4971309;28;20795;-76
2022/12/08 14:40:09;;;;;;;7.38;6.65;;;;;;;;;;4969868;28;20049;-77
2022/12/08 14:42:43;;;;;;;6.90;6.32;;;;;;;;;;4971220;28;20084;-77
2022/12/08 14:45:11;;;;;;;7.32;6.70;;;;;;;;;;4970974;28;20085;-77
2022/12/08 14:47:37;;;;;;;8.45;7.15;;;;;;;;;;4984824;28;20039;-77
2022/12/08 14:50:24;;;;;;;7.50;6.88;;;;;;;;;;4972390;28;20033;-77
2022/12/08 14:52:50;;;;;;;7.40;6.80;;;;;;;;;;4972987;28;20042;-77
2022/12/08 14:55:15;;;;;;;6.95;6.40;;;;;;;;;;4969016;28;20045;-76
2022/12/08 14:57:41;;;;;;;8.13;7.43;;;;;;;;;;4974054;28;20070;-77
2022/12/08 15:00:10;;;;;;;7.97;6.97;;;;;;;;;;4970293;28;20035;-76